createdAt,value
2023-06-29T00:00:18.022Z,75.97
2023-06-29T00:02:19.577Z,76.69
2023-06-29T00:04:22.690Z,77.05
2023-06-29T00:06:24.648Z,78.25
2023-06-29T00:08:27.327Z,78.54
2023-06-29T00:10:30.022Z,78.16
2023-06-29T00:12:31.702Z,77.68
2023-06-29T00:14:33.896Z,77.05
2023-06-29T00:16:36.237Z,76.84
2023-06-29T00:18:37.734Z,77.13
2023-06-29T00:20:40.154Z,77.84
2023-06-29T00:22:48.962Z,78.16
2023-06-29T00:24:57.837Z,77.97
2023-06-29T00:26:59.384Z,77.64
2023-06-29T00:29:02.981Z,77.74
2023-06-29T00:31:05.022Z,78.01
2023-06-29T00:33:06.701Z,77.92
2023-06-29T00:35:10.254Z,78.32
2023-06-29T00:37:12.050Z,78.01
2023-06-29T00:39:13.588Z,77.89
2023-06-29T00:41:15.439Z,77.45
2023-06-29T00:43:19.019Z,77.33
2023-06-29T00:45:20.743Z,77.80
2023-06-29T00:47:22.636Z,78.43
2023-06-29T00:49:24.322Z,78.38
2023-06-29T00:51:26.968Z,78.11
2023-06-29T00:53:28.563Z,77.69
2023-06-29T00:55:30.416Z,77.58
2023-06-29T00:57:33.656Z,78.72
2023-06-29T00:59:36.640Z,78.92
2023-06-29T01:01:40.490Z,78.69
2023-06-29T01:03:43.284Z,78.39
2023-06-29T01:05:46.839Z,78.35
2023-06-29T01:08:06.807Z,78.76
2023-06-29T01:10:11.731Z,78.56
2023-06-29T01:12:14.846Z,78.54
2023-06-29T01:14:18.352Z,78.37
2023-06-29T01:16:22.606Z,78.32
2023-06-29T01:18:25.377Z,78.21
2023-06-29T01:20:28.255Z,78.29
2023-06-29T01:22:38.069Z,78.54
2023-06-29T01:24:41.302Z,78.93
2023-06-29T01:26:43.263Z,78.98
2023-06-29T01:28:44.831Z,78.79
2023-06-29T01:30:50.569Z,78.63
2023-06-29T01:32:53.231Z,78.33
2023-06-29T01:34:55.940Z,79.83
2023-06-29T01:37:19.803Z,79.30
2023-06-29T01:39:24.774Z,79.68
2023-06-29T01:41:27.436Z,79.06
2023-06-29T01:43:30.287Z,79.41
2023-06-29T01:45:34.246Z,79.37
2023-06-29T01:47:36.641Z,79.09
2023-06-29T01:49:38.810Z,80.65
2023-06-29T01:51:40.516Z,80.29
2023-06-29T01:53:42.305Z,80.20
2023-06-29T01:55:44.129Z,80.07
2023-06-29T01:57:46.243Z,79.75
2023-06-29T01:59:48.437Z,80.15
2023-06-29T02:01:50.120Z,80.49
2023-06-29T02:03:51.722Z,80.41
2023-06-29T02:05:53.391Z,79.93
2023-06-29T02:07:55.026Z,81.91
2023-06-29T02:09:56.713Z,81.38
2023-06-29T02:11:59.674Z,80.34
2023-06-29T02:14:01.341Z,80.21
2023-06-29T02:16:03.043Z,79.81
2023-06-29T02:18:04.653Z,79.83
2023-06-29T02:20:10.173Z,79.92
2023-06-29T02:22:12.987Z,80.28
2023-06-29T02:24:16.461Z,80.03
2023-06-29T02:26:18.555Z,79.92
2023-06-29T02:28:20.246Z,79.98
2023-06-29T02:30:21.971Z,79.42
2023-06-29T02:32:24.197Z,79.93
2023-06-29T02:34:26.041Z,80.52
2023-06-29T02:36:28.414Z,83.10
2023-06-29T02:38:30.024Z,82.53
2023-06-29T02:40:31.802Z,82.04
2023-06-29T02:42:33.965Z,81.53
2023-06-29T02:44:35.942Z,81.44
2023-06-29T02:46:37.651Z,81.40
2023-06-29T02:48:39.226Z,81.34
2023-06-29T02:50:41.122Z,81.41
2023-06-29T02:52:43.014Z,81.49
2023-06-29T02:54:44.747Z,82.19
2023-06-29T02:56:46.580Z,83.09
2023-06-29T02:58:48.243Z,81.90
2023-06-29T03:00:56.046Z,81.07
2023-06-29T03:02:57.876Z,80.85
2023-06-29T03:05:00.256Z,81.74
2023-06-29T03:07:03.022Z,82.14
2023-06-29T03:09:05.525Z,81.76
2023-06-29T03:11:06.994Z,81.56
2023-06-29T03:13:08.554Z,81.77
2023-06-29T03:15:10.661Z,82.07
2023-06-29T03:17:14.443Z,82.21
2023-06-29T03:19:16.018Z,83.46
2023-06-29T03:21:20.621Z,82.79
2023-06-29T03:23:22.513Z,82.07
2023-06-29T03:25:24.320Z,81.76
2023-06-29T03:27:25.885Z,82.50
2023-06-29T03:29:28.135Z,82.13
2023-06-29T03:31:29.839Z,81.93
2023-06-29T03:33:31.501Z,81.78
2023-06-29T03:35:33.207Z,82.15
2023-06-29T03:37:34.893Z,83.67
2023-06-29T03:39:36.471Z,84.52
2023-06-29T03:41:38.048Z,83.45
2023-06-29T03:43:39.701Z,83.78
2023-06-29T03:45:41.511Z,83.22
2023-06-29T03:47:43.314Z,83.57
2023-06-29T03:49:45.415Z,83.25
2023-06-29T03:51:46.955Z,83.51
2023-06-29T03:53:48.530Z,85.65
2023-06-29T03:55:50.203Z,85.08
2023-06-29T03:57:52.034Z,85.76
2023-06-29T03:59:53.636Z,85.82
2023-06-29T04:01:55.386Z,86.01
2023-06-29T04:03:57.063Z,85.65
2023-06-29T04:05:58.730Z,85.27
2023-06-29T04:08:05.235Z,85.75
2023-06-29T04:10:07.326Z,86.06
2023-06-29T04:12:09.238Z,85.53
2023-06-29T04:14:10.808Z,84.77
2023-06-29T04:16:12.526Z,84.52
2023-06-29T04:18:14.182Z,84.09
2023-06-29T04:20:15.880Z,84.70
2023-06-29T04:22:17.988Z,84.53
2023-06-29T04:24:19.639Z,84.14
2023-06-29T04:26:28.961Z,83.39
2023-06-29T04:28:33.623Z,84.30
2023-06-29T04:30:37.507Z,83.58
2023-06-29T04:32:40.493Z,82.81
2023-06-29T04:34:42.266Z,82.63
2023-06-29T04:36:47.103Z,81.86
2023-06-29T04:38:48.992Z,80.82
2023-06-29T04:40:50.664Z,81.36
2023-06-29T04:42:58.134Z,80.16
2023-06-29T04:45:01.519Z,81.03
2023-06-29T04:47:04.062Z,81.44
2023-06-29T04:49:07.490Z,81.45
2023-06-29T04:51:09.439Z,81.46
2023-06-29T04:53:13.483Z,80.66
2023-06-29T04:55:15.123Z,81.16
2023-06-29T04:57:16.701Z,80.22
2023-06-29T04:59:18.299Z,79.61
2023-06-29T05:01:20.034Z,76.92
2023-06-29T05:03:21.729Z,78.14
2023-06-29T05:05:23.786Z,79.49
2023-06-29T05:07:25.937Z,79.20
2023-06-29T05:09:27.557Z,79.73
2023-06-29T05:11:29.300Z,79.20
2023-06-29T05:13:30.915Z,78.56
2023-06-29T05:15:32.711Z,77.70
2023-06-29T05:17:35.611Z,77.74
2023-06-29T05:19:37.475Z,75.93
2023-06-29T05:21:39.029Z,75.72
2023-06-29T05:23:40.853Z,74.03
2023-06-29T05:25:43.277Z,76.11
2023-06-29T05:27:45.124Z,74.62
2023-06-29T05:29:46.658Z,73.93
2023-06-29T05:31:48.300Z,73.71
2023-06-29T05:33:50.277Z,74.13
2023-06-29T05:35:52.827Z,73.34
2023-06-29T05:37:54.385Z,73.55
2023-06-29T05:39:57.694Z,74.12
2023-06-29T05:41:59.233Z,73.12
2023-06-29T05:44:00.960Z,72.42
2023-06-29T05:46:02.802Z,71.84
2023-06-29T05:48:04.988Z,71.18
2023-06-29T05:50:07.423Z,70.48
2023-06-29T05:52:09.113Z,69.91
2023-06-29T05:54:11.209Z,70.25
2023-06-29T05:56:12.822Z,68.17
2023-06-29T05:58:14.357Z,68.42
2023-06-29T06:00:16.601Z,67.73
2023-06-29T06:02:20.819Z,67.25
2023-06-29T06:04:22.634Z,66.98
2023-06-29T06:06:24.334Z,66.48
2023-06-29T06:08:25.892Z,65.22
2023-06-29T06:10:27.545Z,64.40
2023-06-29T06:12:29.436Z,64.02
2023-06-29T06:14:31.278Z,62.50
2023-06-29T06:16:32.975Z,63.02
2023-06-29T06:18:34.663Z,62.40
2023-06-29T06:20:36.324Z,61.64
2023-06-29T06:22:37.951Z,60.46
2023-06-29T06:24:39.862Z,61.29
2023-06-29T06:26:41.929Z,60.24
2023-06-29T06:28:43.426Z,59.12
2023-06-29T06:30:45.238Z,55.60
2023-06-29T06:32:47.007Z,56.01
2023-06-29T06:34:51.604Z,55.17
2023-06-29T06:36:53.269Z,54.93
2023-06-29T06:38:54.835Z,55.40
2023-06-29T06:40:56.376Z,55.88
2023-06-29T06:42:59.819Z,54.28
2023-06-29T06:45:05.148Z,54.05
2023-06-29T06:47:07.070Z,53.34
2023-06-29T06:49:09.024Z,52.35
2023-06-29T06:51:10.634Z,52.13
2023-06-29T06:53:12.507Z,52.86
2023-06-29T06:55:14.099Z,51.59
2023-06-29T06:57:15.785Z,52.09
2023-06-29T06:59:17.295Z,51.25
2023-06-29T07:01:23.178Z,51.01
2023-06-29T07:03:27.230Z,49.29
2023-06-29T07:05:29.142Z,50.21
2023-06-29T07:07:31.395Z,50.23
2023-06-29T07:09:33.244Z,50.08
2023-06-29T07:11:37.143Z,48.08
2023-06-29T07:13:38.935Z,48.67
2023-06-29T07:15:40.576Z,49.13
2023-06-29T07:17:42.183Z,48.55
2023-06-29T07:25:57.434Z,47.22
2023-06-29T07:27:59.205Z,48.44
2023-06-29T07:30:00.832Z,46.59
2023-06-29T07:32:02.911Z,46.40
2023-06-29T07:34:04.668Z,45.59
2023-06-29T07:36:06.516Z,46.33
2023-06-29T07:38:08.294Z,47.38
2023-06-29T07:40:10.292Z,44.85
2023-06-29T07:42:11.913Z,45.82
2023-06-29T07:44:13.640Z,46.53
2023-06-29T07:46:15.521Z,44.94
2023-06-29T07:48:18.390Z,46.35
2023-06-29T07:50:20.982Z,45.94
2023-06-29T07:52:23.876Z,46.05
2023-06-29T07:54:25.480Z,44.78
2023-06-29T07:58:39.172Z,44.39
2023-06-29T07:58:48.968Z,45.70
2023-06-29T08:00:51.701Z,44.73
2023-06-29T08:02:53.809Z,43.59
2023-06-29T08:07:00.103Z,44.08
2023-06-29T08:09:01.964Z,44.38
2023-06-29T08:11:03.670Z,44.05
2023-06-29T08:13:06.193Z,44.63
2023-06-29T08:15:08.391Z,44.89
2023-06-29T08:17:09.956Z,44.71
2023-06-29T08:19:11.639Z,44.04
2023-06-29T08:21:13.559Z,42.52
2023-06-29T08:23:15.654Z,44.83
2023-06-29T08:25:17.340Z,45.21
2023-06-29T08:27:20.586Z,45.68
2023-06-29T08:29:22.300Z,45.05
2023-06-29T08:31:23.921Z,41.97
2023-06-29T08:33:25.686Z,42.08
2023-06-29T08:35:27.501Z,43.02
2023-06-29T08:37:29.399Z,41.88
2023-06-29T08:39:31.190Z,43.40
2023-06-29T08:41:32.913Z,43.83
2023-06-29T08:43:34.578Z,41.82
2023-06-29T08:45:36.114Z,42.60
2023-06-29T08:47:39.479Z,43.08
2023-06-29T08:49:43.299Z,42.33
2023-06-29T08:51:49.812Z,41.65
2023-06-29T08:53:53.220Z,42.32
2023-06-29T08:55:54.879Z,41.51
2023-06-29T08:57:56.470Z,41.70
2023-06-29T09:00:00.872Z,41.18
2023-06-29T09:02:04.540Z,39.42
2023-06-29T09:04:06.965Z,40.68
2023-06-29T09:06:10.861Z,41.80
2023-06-29T09:08:13.014Z,41.10
2023-06-29T09:10:16.215Z,39.81
2023-06-29T09:12:18.588Z,38.95
2023-06-29T09:14:20.339Z,39.04
2023-06-29T09:16:29.511Z,39.26
2023-06-29T09:18:33.499Z,39.21
2023-06-29T09:20:47.384Z,38.17
2023-06-29T09:22:53.099Z,38.92
2023-06-29T09:25:09.989Z,38.32
2023-06-29T09:27:14.793Z,38.67
2023-06-29T09:29:17.679Z,39.25
2023-06-29T09:31:19.371Z,38.89
2023-06-29T09:33:26.256Z,40.78
2023-06-29T09:35:29.934Z,40.98
2023-06-29T09:37:31.554Z,41.09
2023-06-29T09:39:33.444Z,40.60
2023-06-29T09:41:51.704Z,39.87
2023-06-29T09:43:54.008Z,40.26
2023-06-29T09:46:09.377Z,41.42
2023-06-29T09:50:22.628Z,43.66
2023-06-29T09:52:24.588Z,41.92
2023-06-29T09:54:26.473Z,42.61
2023-06-29T09:56:28.222Z,43.13
2023-06-29T09:58:31.001Z,41.46
2023-06-29T10:00:33.285Z,41.17
2023-06-29T10:02:35.008Z,40.60
2023-06-29T10:04:36.982Z,40.12
2023-06-29T10:06:44.853Z,39.93
2023-06-29T10:08:51.209Z,40.26
2023-06-29T10:10:56.996Z,39.88
2023-06-29T10:12:59.224Z,37.83
2023-06-29T10:15:10.050Z,38.88
2023-06-29T10:17:55.028Z,40.49
2023-06-29T10:19:58.702Z,40.79
2023-06-29T10:22:07.782Z,40.20
2023-06-29T10:24:14.117Z,40.57
2023-06-29T10:26:16.981Z,39.90
2023-06-29T10:28:20.344Z,39.50
2023-06-29T10:30:24.972Z,40.43
2023-06-29T10:32:38.528Z,41.32
2023-06-29T10:35:03.056Z,40.23
2023-06-29T10:37:05.848Z,39.53
2023-06-29T10:39:39.887Z,39.93
2023-06-29T10:41:42.231Z,39.83
2023-06-29T10:44:01.197Z,39.91
2023-06-29T10:46:02.793Z,39.51
2023-06-29T10:48:06.190Z,39.57
2023-06-29T10:50:11.628Z,40.15
2023-06-29T10:52:24.109Z,39.80
2023-06-29T10:54:26.455Z,40.58
2023-06-29T10:56:31.978Z,41.04
2023-06-29T10:58:38.866Z,40.75
2023-06-29T11:00:41.495Z,41.58
2023-06-29T11:02:43.227Z,42.65
2023-06-29T11:04:44.972Z,42.98
2023-06-29T11:06:46.699Z,44.11
2023-06-29T11:08:48.871Z,44.81
2023-06-29T11:10:52.040Z,43.14
2023-06-29T11:12:56.800Z,41.73
2023-06-29T11:15:18.427Z,39.16
2023-06-29T11:17:20.357Z,40.45
2023-06-29T11:19:27.300Z,38.28
2023-06-29T11:21:28.877Z,37.98
2023-06-29T11:23:30.431Z,39.55
2023-06-29T11:25:32.753Z,39.86
2023-06-29T11:27:34.336Z,39.31
2023-06-29T11:29:35.889Z,39.16
2023-06-29T11:31:37.499Z,39.71
2023-06-29T11:33:47.652Z,40.15
2023-06-29T11:35:49.320Z,38.97
2023-06-29T11:37:57.174Z,37.97
2023-06-29T11:39:58.985Z,38.12
2023-06-29T11:42:01.974Z,36.68
2023-06-29T11:44:03.916Z,37.33
2023-06-29T11:46:06.655Z,35.99
2023-06-29T11:48:08.681Z,35.39
2023-06-29T11:50:11.634Z,35.17
2023-06-29T11:52:13.313Z,35.96
2023-06-29T11:54:15.181Z,36.04
2023-06-29T11:56:36.406Z,37.31
2023-06-29T11:58:38.174Z,35.82
2023-06-29T12:00:39.771Z,36.09
2023-06-29T12:02:41.987Z,35.37
2023-06-29T12:05:00.875Z,35.40
2023-06-29T12:07:03.355Z,36.69
2023-06-29T12:09:12.781Z,36.81
2023-06-29T12:11:22.865Z,36.47
2023-06-29T12:13:25.009Z,36.65
2023-06-29T12:15:28.951Z,37.63
2023-06-29T12:19:38.813Z,37.90
2023-06-29T12:21:45.500Z,37.67
2023-06-29T12:23:47.862Z,38.74
2023-06-29T12:25:53.364Z,39.41
2023-06-29T12:27:55.323Z,38.47
2023-06-29T12:29:56.904Z,37.35
2023-06-29T12:32:01.965Z,38.35
2023-06-29T12:34:04.253Z,38.50
2023-06-29T12:36:05.698Z,38.73
2023-06-29T12:38:07.643Z,39.49
2023-06-29T12:40:09.634Z,39.20
2023-06-29T12:42:11.385Z,39.02
2023-06-29T12:44:13.112Z,39.80
2023-06-29T12:46:15.206Z,40.00
2023-06-29T12:48:17.068Z,39.93
2023-06-29T12:50:19.887Z,39.26
2023-06-29T12:52:21.613Z,39.63
2023-06-29T12:54:23.201Z,39.72
2023-06-29T12:56:26.381Z,39.93
2023-06-29T12:58:28.224Z,40.39
2023-06-29T13:00:29.929Z,41.59
2023-06-29T13:02:32.947Z,40.53
2023-06-29T13:04:36.816Z,41.36
2023-06-29T13:06:41.946Z,41.01
2023-06-29T13:08:44.592Z,41.18
2023-06-29T13:10:46.456Z,42.81
2023-06-29T13:12:48.100Z,41.16
2023-06-29T13:14:53.562Z,41.51
2023-06-29T13:16:58.109Z,43.08
2023-06-29T13:18:59.663Z,42.85
2023-06-29T13:21:01.762Z,43.62
2023-06-29T13:23:03.340Z,43.03
2023-06-29T13:25:05.379Z,43.93
2023-06-29T13:27:07.601Z,43.73
2023-06-29T13:29:09.072Z,43.68
2023-06-29T13:31:10.754Z,43.44
2023-06-29T13:33:12.479Z,45.53
2023-06-29T13:35:14.112Z,44.74
2023-06-29T13:37:16.709Z,46.21
2023-06-29T13:39:18.369Z,47.38
2023-06-29T13:41:21.412Z,49.06
2023-06-29T13:43:23.500Z,50.07
2023-06-29T13:45:25.281Z,52.89
2023-06-29T13:47:26.953Z,50.19
2023-06-29T13:49:28.608Z,50.74
2023-06-29T13:51:31.859Z,52.58
2023-06-29T13:53:33.456Z,50.41
2023-06-29T13:55:35.068Z,51.87
2023-06-29T13:57:36.659Z,51.29
2023-06-29T13:59:38.653Z,52.28
2023-06-29T14:01:41.610Z,52.81
2023-06-29T14:03:43.339Z,51.48
2023-06-29T14:05:45.241Z,51.65
2023-06-29T14:07:47.239Z,51.91
2023-06-29T14:09:48.785Z,51.83
2023-06-29T14:11:53.055Z,51.22
2023-06-29T14:13:56.594Z,51.79
2023-06-29T14:15:59.460Z,54.74
2023-06-29T14:18:01.293Z,55.55
2023-06-29T14:20:03.062Z,52.59
2023-06-29T14:22:06.811Z,54.04
2023-06-29T14:24:11.140Z,52.27
2023-06-29T14:26:12.993Z,54.09
2023-06-29T14:28:14.540Z,51.86
2023-06-29T14:30:16.251Z,52.62
2023-06-29T14:32:18.019Z,51.73
2023-06-29T14:34:20.014Z,54.14
2023-06-29T14:36:21.620Z,53.03
2023-06-29T14:38:23.819Z,55.07
2023-06-29T14:40:25.832Z,54.89
2023-06-29T14:42:27.832Z,53.53
2023-06-29T14:44:29.717Z,52.55
2023-06-29T14:46:31.679Z,51.83
2023-06-29T14:48:33.603Z,53.22
2023-06-29T14:50:35.478Z,54.27
2023-06-29T14:52:38.991Z,53.12
2023-06-29T14:54:40.987Z,51.55
2023-06-29T14:56:42.654Z,52.86
2023-06-29T14:58:44.695Z,50.96
2023-06-29T15:00:46.296Z,49.47
2023-06-29T15:02:48.843Z,47.85
2023-06-29T15:04:50.468Z,48.56
2023-06-29T15:06:53.866Z,45.56
2023-06-29T15:08:56.609Z,45.00
2023-06-29T15:10:58.152Z,43.81
2023-06-29T15:12:59.879Z,45.28
2023-06-29T15:15:02.752Z,43.54
2023-06-29T15:17:06.146Z,43.56
2023-06-29T15:19:07.852Z,42.42
2023-06-29T15:21:09.436Z,44.02
2023-06-29T15:23:11.400Z,44.01
2023-06-29T15:25:13.651Z,43.68
2023-06-29T15:27:15.273Z,42.02
2023-06-29T15:29:16.928Z,43.02
2023-06-29T15:31:18.553Z,44.58
2023-06-29T15:33:20.366Z,43.06
2023-06-29T15:35:22.841Z,43.68
2023-06-29T15:37:25.023Z,45.56
2023-06-29T15:39:26.822Z,45.08
2023-06-29T15:41:28.436Z,45.90
2023-06-29T15:43:30.048Z,45.82
2023-06-29T15:45:31.668Z,47.65
2023-06-29T15:47:34.455Z,46.55
2023-06-29T15:49:37.522Z,47.71
2023-06-29T15:51:39.168Z,48.57
2023-06-29T15:53:40.744Z,46.87
2023-06-29T15:55:42.371Z,48.26
2023-06-29T15:57:43.995Z,48.18
2023-06-29T15:59:46.208Z,48.71
2023-06-29T16:01:47.890Z,47.97
2023-06-29T16:03:49.890Z,48.18
2023-06-29T16:05:51.946Z,48.79
2023-06-29T16:07:54.063Z,48.81
2023-06-29T16:09:56.275Z,47.97
2023-06-29T16:11:57.895Z,48.27
2023-06-29T16:13:59.439Z,47.41
2023-06-29T16:16:01.053Z,48.17
2023-06-29T16:18:02.649Z,47.69
2023-06-29T16:20:04.794Z,47.66
2023-06-29T16:22:07.745Z,48.75
2023-06-29T16:24:09.308Z,48.21
2023-06-29T16:26:10.884Z,47.66
2023-06-29T16:28:12.509Z,47.88
2023-06-29T16:30:14.101Z,49.28
2023-06-29T16:32:16.297Z,49.69
2023-06-29T16:34:17.945Z,48.63
2023-06-29T16:36:20.060Z,50.22
2023-06-29T16:38:22.509Z,50.63
2023-06-29T16:40:24.095Z,51.94
2023-06-29T16:42:25.937Z,51.40
2023-06-29T16:44:27.737Z,52.19
2023-06-29T16:46:29.580Z,52.16
2023-06-29T16:48:31.468Z,51.72
2023-06-29T16:50:33.166Z,51.96
2023-06-29T16:52:34.854Z,51.89
2023-06-29T16:54:36.374Z,52.58
2023-06-29T16:56:38.036Z,52.40
2023-06-29T16:58:39.692Z,52.63
2023-06-29T17:00:42.427Z,52.31
2023-06-29T17:02:44.155Z,54.02
2023-06-29T17:04:45.795Z,52.29
2023-06-29T17:06:47.590Z,53.09
2023-06-29T17:08:49.184Z,52.46
2023-06-29T17:10:53.961Z,52.42
2023-06-29T17:12:55.526Z,52.45
2023-06-29T17:14:57.470Z,52.00
2023-06-29T17:16:59.993Z,52.43
2023-06-29T17:19:01.668Z,52.36
2023-06-29T17:21:03.833Z,52.96
2023-06-29T17:23:05.449Z,53.18
2023-06-29T17:25:08.403Z,53.25
2023-06-29T17:27:11.151Z,53.58
2023-06-29T17:29:12.936Z,54.25
2023-06-29T17:31:14.672Z,53.07
2023-06-29T17:33:17.922Z,52.37
2023-06-29T17:35:19.473Z,53.91
2023-06-29T17:37:21.136Z,53.44
2023-06-29T17:39:22.969Z,52.29
2023-06-29T17:41:24.524Z,51.87
2023-06-29T17:43:26.285Z,52.13
2023-06-29T17:45:28.806Z,51.54
2023-06-29T17:47:30.485Z,51.95
2023-06-29T17:49:32.327Z,51.47
2023-06-29T17:51:33.918Z,52.21
2023-06-29T17:53:35.635Z,52.70
2023-06-29T17:55:37.225Z,52.60
2023-06-29T17:57:38.748Z,52.40
2023-06-29T17:59:40.287Z,52.70
2023-06-29T18:01:41.879Z,51.98
2023-06-29T18:03:43.818Z,53.15
2023-06-29T18:05:45.778Z,52.48
2023-06-29T18:07:47.675Z,54.07
2023-06-29T18:09:49.860Z,55.13
2023-06-29T18:11:53.521Z,55.21
2023-06-29T18:13:55.249Z,54.24
2023-06-29T18:15:56.913Z,54.46
2023-06-29T18:17:58.848Z,54.98
2023-06-29T18:20:01.483Z,54.56
2023-06-29T18:22:03.559Z,54.85
2023-06-29T18:24:05.593Z,54.92
2023-06-29T18:26:08.072Z,55.21
2023-06-29T18:28:09.755Z,56.35
2023-06-29T18:30:12.928Z,57.43
2023-06-29T18:32:14.641Z,59.55
2023-06-29T18:34:16.198Z,59.56
2023-06-29T18:36:17.820Z,59.42
2023-06-29T18:38:19.744Z,59.65
2023-06-29T18:40:25.456Z,59.70
2023-06-29T18:42:27.074Z,60.03
2023-06-29T18:44:29.082Z,60.02
2023-06-29T18:46:31.588Z,60.58
2023-06-29T18:48:33.851Z,61.07
2023-06-29T18:50:35.638Z,60.33
2023-06-29T18:52:37.187Z,60.70
2023-06-29T18:54:38.881Z,60.38
2023-06-29T18:56:40.473Z,59.22
2023-06-29T18:58:42.297Z,59.80
2023-06-29T19:00:46.631Z,59.47
2023-06-29T19:02:48.598Z,59.78
2023-06-29T19:04:50.862Z,60.49
2023-06-29T19:06:52.922Z,59.22
2023-06-29T19:08:55.271Z,59.67
2023-06-29T19:10:57.408Z,60.36
2023-06-29T19:12:58.989Z,60.56
2023-06-29T19:15:01.058Z,60.31
2023-06-29T19:17:02.597Z,60.56
2023-06-29T19:19:04.252Z,60.67
2023-06-29T19:21:06.034Z,61.65
2023-06-29T19:23:07.910Z,62.09
2023-06-29T19:25:10.278Z,62.31
2023-06-29T19:27:12.052Z,63.01
2023-06-29T19:29:14.767Z,63.06
2023-06-29T19:31:16.752Z,63.68
2023-06-29T19:33:18.464Z,63.96
2023-06-29T19:35:20.256Z,65.07
2023-06-29T19:37:25.065Z,65.76
2023-06-29T19:39:26.740Z,66.54
2023-06-29T19:41:28.651Z,66.91
2023-06-29T19:43:34.070Z,66.98
2023-06-29T19:45:36.326Z,67.12
2023-06-29T19:47:38.399Z,67.67
2023-06-29T19:49:40.534Z,67.53
2023-06-29T19:51:42.405Z,67.00
2023-06-29T19:53:45.102Z,69.11
2023-06-29T19:55:46.906Z,69.93
2023-06-29T19:57:48.832Z,69.34
2023-06-29T19:59:51.265Z,69.51
2023-06-29T20:01:52.822Z,70.48
2023-06-29T20:03:54.450Z,70.55
2023-06-29T20:05:56.122Z,70.53
2023-06-29T20:07:57.724Z,72.12
2023-06-29T20:09:59.334Z,72.83
2023-06-29T20:12:00.986Z,72.99
2023-06-29T20:14:02.802Z,72.54
2023-06-29T20:16:04.766Z,73.45
2023-06-29T20:18:06.527Z,73.08
2023-06-29T20:20:08.723Z,72.61
2023-06-29T20:22:11.293Z,75.20
2023-06-29T20:24:13.017Z,74.27
2023-06-29T20:26:14.597Z,74.04
2023-06-29T20:28:17.330Z,74.30
2023-06-29T20:30:18.981Z,73.73
2023-06-29T20:32:20.635Z,74.71
2023-06-29T20:34:22.529Z,74.23
2023-06-29T20:36:24.339Z,74.60
2023-06-29T20:38:26.018Z,75.20
2023-06-29T20:40:27.744Z,74.55
2023-06-29T20:42:29.658Z,74.46
2023-06-29T20:44:33.569Z,74.38
2023-06-29T20:46:35.452Z,74.54
2023-06-29T20:48:37.438Z,74.13
2023-06-29T20:50:39.191Z,74.10
2023-06-29T20:52:40.782Z,74.12
2023-06-29T20:54:42.365Z,74.23
2023-06-29T20:56:45.152Z,75.51
2023-06-29T20:58:47.039Z,76.48
2023-06-29T21:00:49.268Z,77.43
2023-06-29T21:02:51.831Z,76.65
2023-06-29T21:04:56.928Z,76.44
2023-06-29T21:06:58.755Z,76.02
2023-06-29T21:09:00.579Z,75.38
2023-06-29T21:11:02.735Z,75.72
2023-06-29T21:13:04.283Z,75.42
2023-06-29T21:15:06.802Z,75.20
2023-06-29T21:17:09.748Z,75.43
2023-06-29T21:19:15.938Z,75.47
2023-06-29T21:21:17.788Z,77.23
2023-06-29T21:23:19.805Z,76.32
2023-06-29T21:25:22.202Z,76.41
2023-06-29T21:27:23.992Z,76.34
2023-06-29T21:29:41.540Z,76.72
2023-06-29T21:31:45.094Z,76.86
2023-06-29T21:33:46.891Z,76.80
2023-06-29T21:35:48.685Z,77.01
2023-06-29T21:37:50.550Z,79.14
2023-06-29T21:39:52.120Z,80.66
2023-06-29T21:41:53.870Z,80.93
2023-06-29T21:43:55.727Z,79.89
2023-06-29T21:45:57.298Z,79.02
2023-06-29T21:47:59.197Z,78.89
2023-06-29T21:50:01.040Z,79.59
2023-06-29T21:52:02.636Z,78.42
2023-06-29T21:54:05.448Z,78.34
2023-06-29T21:56:21.246Z,78.23
2023-06-29T21:58:28.000Z,77.94
2023-06-29T22:00:30.165Z,77.62
2023-06-29T22:02:31.950Z,77.41
2023-06-29T22:04:33.541Z,77.51
2023-06-29T22:06:35.325Z,77.61
2023-06-29T22:08:36.877Z,77.01
2023-06-29T22:10:38.563Z,77.06
2023-06-29T22:12:44.039Z,76.79
2023-06-29T22:14:49.432Z,76.46
2023-06-29T22:16:52.477Z,76.31
2023-06-29T22:18:54.102Z,76.65
2023-06-29T22:20:55.720Z,76.75
2023-06-29T22:22:57.436Z,76.49
2023-06-29T22:24:59.173Z,76.43
2023-06-29T22:27:00.802Z,76.67
2023-06-29T22:29:02.906Z,76.88
2023-06-29T22:31:04.496Z,77.01
2023-06-29T22:33:06.245Z,77.38
2023-06-29T22:35:08.403Z,77.43
2023-06-29T22:37:09.863Z,78.00
2023-06-29T22:39:11.469Z,77.60
2023-06-29T22:41:14.870Z,77.44
2023-06-29T22:43:16.500Z,77.35
2023-06-29T22:45:19.075Z,77.37
2023-06-29T22:47:20.794Z,77.49
2023-06-29T22:49:22.671Z,77.64
2023-06-29T22:51:27.386Z,78.08
2023-06-29T22:53:29.624Z,77.63
2023-06-29T22:55:31.325Z,78.10
2023-06-29T22:57:33.227Z,78.11
2023-06-29T22:59:34.830Z,78.30
2023-06-29T23:01:37.258Z,78.09
2023-06-29T23:03:39.361Z,78.31
2023-06-29T23:05:41.104Z,78.29
2023-06-29T23:07:45.281Z,78.72
2023-06-29T23:09:47.061Z,78.83
2023-06-29T23:11:50.405Z,79.05
2023-06-29T23:13:52.176Z,79.29
2023-06-29T23:15:53.775Z,79.38
2023-06-29T23:17:55.572Z,79.50
2023-06-29T23:19:58.176Z,78.83
2023-06-29T23:22:01.008Z,78.77
2023-06-29T23:24:03.912Z,79.08
2023-06-29T23:26:07.482Z,79.02
2023-06-29T23:28:10.745Z,79.61
2023-06-29T23:30:14.247Z,79.75
2023-06-29T23:32:15.879Z,79.54
2023-06-29T23:34:17.820Z,79.89
2023-06-29T23:36:22.728Z,79.90
2023-06-29T23:38:24.464Z,79.89
2023-06-29T23:40:26.971Z,79.96
2023-06-29T23:42:28.830Z,79.18
2023-06-29T23:44:30.711Z,79.60
2023-06-29T23:46:59.387Z,79.68
2023-06-29T23:49:01.190Z,80.03
2023-06-29T23:51:02.827Z,80.08
2023-06-29T23:53:05.015Z,80.33
2023-06-29T23:55:09.265Z,80.42
2023-06-29T23:57:10.821Z,80.12
2023-06-29T23:59:12.731Z,80.01
